Time,TemperatureF,DewpointF,PressureIn,WindDirection,WindDirectionDegrees,WindSpeedMPH,WindSpeedGustMPH,Humidity,HourlyPrecipIn,Conditions,Clouds,dailyrainin,SoftwareType,DateUTC
2013-04-05 00:00:00,42.8,17.7,29.96,SE,137,1.0,1.0,36,0.00,,,0.00,Wunderground v.1.15,2013-04-05 04:00:00,
2013-04-05 00:10:00,42.5,17.4,29.96,SE,131,1.0,21.0,36,0.00,,,0.00,Wunderground v.1.15,2013-04-05 04:10:00,
2013-04-05 00:20:00,42.5,18.0,29.96,SSE,158,1.0,21.0,37,0.00,,,0.00,Wunderground v.1.15,2013-04-05 04:20:00,
2013-04-05 00:30:00,42.6,17.5,29.95,ESE,121,3.0,3.0,36,0.00,,,0.00,Wunderground v.1.15,2013-04-05 04:30:00,
2013-04-05 00:40:00,42.5,18.6,29.95,SE,136,2.0,21.0,38,0.00,,,0.00,Wunderground v.1.15,2013-04-05 04:40:00,
2013-04-05 00:50:00,41.9,18.7,29.95,ESE,106,2.0,21.0,39,0.00,,,0.00,Wunderground v.1.15,2013-04-05 04:50:00,
2013-04-05 01:00:00,41.8,19.2,29.95,SE,141,3.0,21.0,40,0.00,,,0.00,Wunderground v.1.15,2013-04-05 05:00:00,
2013-04-05 01:10:00,41.8,18.6,29.95,ESE,116,3.0,21.0,39,0.00,,,0.00,Wunderground v.1.15,2013-04-05 05:10:00,
2013-04-05 01:20:00,41.3,19.3,29.94,East,95,3.0,21.0,41,0.00,,,0.00,Wunderground v.1.15,2013-04-05 05:20:00,
2013-04-05 01:30:00,41.6,19.0,29.94,ESE,110,4.0,21.0,40,0.00,,,0.00,Wunderground v.1.15,2013-04-05 05:30:00,
2013-04-05 01:40:00,41.6,19.0,29.94,SSE,156,4.0,4.0,40,0.00,,,0.00,Wunderground v.1.15,2013-04-05 05:40:00,
2013-04-05 01:50:00,41.3,19.3,29.93,SE,131,3.0,3.0,41,0.00,,,0.00,Wunderground v.1.15,2013-04-05 05:50:00,
2013-04-05 02:00:00,41.5,19.5,29.93,ESE,116,3.0,21.0,41,0.00,,,0.00,Wunderground v.1.15,2013-04-05 06:00:00,
2013-04-05 02:10:00,40.9,19.5,29.93,ESE,121,3.0,3.0,42,0.00,,,0.00,Wunderground v.1.15,2013-04-05 06:10:00,
2013-04-05 02:20:00,41.2,19.2,29.93,ESE,115,4.0,4.0,41,0.00,,,0.00,Wunderground v.1.15,2013-04-05 06:20:00,
2013-04-05 02:30:00,41.1,19.7,29.92,ESE,112,3.0,3.0,42,0.00,,,0.00,Wunderground v.1.15,2013-04-05 06:30:00,
2013-04-05 02:40:00,40.5,20.3,29.92,SE,131,3.0,3.0,44,0.00,,,0.00,Wunderground v.1.15,2013-04-05 06:40:00,
2013-04-05 02:50:00,40.3,19.5,29.92,SE,141,3.0,21.0,43,0.00,,,0.00,Wunderground v.1.15,2013-04-05 06:50:00,
2013-04-05 03:00:00,40.3,20.1,29.92,SE,131,3.0,21.0,44,0.00,,,0.00,Wunderground v.1.15,2013-04-05 07:00:00,
2013-04-05 03:10:00,40.2,20.0,29.92,SE,136,3.0,21.0,44,0.00,,,0.00,Wunderground v.1.15,2013-04-05 07:10:00,
2013-04-05 03:20:00,40.1,20.4,29.92,SE,126,4.0,4.0,45,0.00,,,0.00,Wunderground v.1.15,2013-04-05 07:20:00,
2013-04-05 03:30:00,39.6,20.0,29.91,ESE,121,2.0,21.0,45,0.00,,,0.00,Wunderground v.1.15,2013-04-05 07:30:00,
2013-04-05 03:40:00,39.2,20.6,29.91,SE,126,2.0,21.0,47,0.00,,,0.00,Wunderground v.1.15,2013-04-05 07:40:00,
2013-04-05 03:50:00,39.1,20.5,29.91,ESE,112,2.0,21.0,47,0.00,,,0.00,Wunderground v.1.15,2013-04-05 07:50:00,
2013-04-05 04:00:00,39.1,20.5,29.91,ESE,110,2.0,21.0,47,0.00,,,0.00,Wunderground v.1.15,2013-04-05 08:00:00,
2013-04-05 04:10:00,39.2,20.6,29.91,ESE,108,3.0,3.0,47,0.00,,,0.00,Wunderground v.1.15,2013-04-05 08:10:00,
2013-04-05 04:20:00,39.2,20.6,29.90,ESE,112,3.0,3.0,47,0.00,,,0.00,Wunderground v.1.15,2013-04-05 08:20:00,
2013-04-05 04:30:00,38.8,20.3,29.90,ESE,103,2.0,21.0,47,0.00,,,0.00,Wunderground v.1.15,2013-04-05 08:30:00,
2013-04-05 04:40:00,39.1,20.0,29.90,ESE,110,2.0,2.0,46,0.00,,,0.00,Wunderground v.1.15,2013-04-05 08:40:00,
2013-04-05 04:50:00,38.8,20.3,29.90,ESE,110,1.0,1.0,47,0.00,,,0.00,Wunderground v.1.15,2013-04-05 08:50:00,
2013-04-05 05:00:00,38.5,19.5,29.90,East,96,1.0,1.0,46,0.00,,,0.00,Wunderground v.1.15,2013-04-05 09:00:00,
2013-04-05 05:10:00,38.0,20.0,29.90,SE,137,1.0,1.0,48,0.00,,,0.00,Wunderground v.1.15,2013-04-05 09:10:00,
2013-04-05 05:20:00,37.6,19.2,29.90,SE,137,0.0,21.0,47,0.00,,,0.00,Wunderground v.1.15,2013-04-05 09:20:00,
2013-04-05 05:30:00,37.8,19.8,29.89,ESE,110,2.0,2.0,48,0.00,,,0.00,Wunderground v.1.15,2013-04-05 09:30:00,
2013-04-05 05:40:00,37.6,19.7,29.89,ESE,106,1.0,1.0,48,0.00,,,0.00,Wunderground v.1.15,2013-04-05 09:40:00,
2013-04-05 05:50:00,37.6,19.2,29.88,ESE,121,1.0,1.0,47,0.00,,,0.00,Wunderground v.1.15,2013-04-05 09:50:00,
2013-04-05 06:00:00,36.8,18.9,29.88,ESE,121,0.0,21.0,48,0.00,,,0.00,Wunderground v.1.15,2013-04-05 10:00:00,
2013-04-05 06:10:00,36.2,18.9,29.88,ESE,121,0.0,21.0,49,0.00,,,0.00,Wunderground v.1.15,2013-04-05 10:10:00,
2013-04-05 06:20:00,35.9,18.6,29.88,ESE,121,0.0,21.0,49,0.00,,,0.00,Wunderground v.1.15,2013-04-05 10:20:00,
2013-04-05 06:30:00,35.9,18.1,29.87,SE,126,2.0,21.0,48,0.00,,,0.00,Wunderground v.1.15,2013-04-05 10:30:00,
2013-04-05 06:40:00,36.0,17.7,29.87,ESE,121,1.0,21.0,47,0.00,,,0.00,Wunderground v.1.15,2013-04-05 10:40:00,
2013-04-05 06:50:00,36.0,17.2,29.88,ESE,117,1.0,1.0,46,0.00,,,0.00,Wunderground v.1.15,2013-04-05 10:50:00,
2013-04-05 07:00:00,35.8,17.5,29.89,ESE,121,0.0,21.0,47,0.00,,,0.00,Wunderground v.1.15,2013-04-05 11:00:00,
2013-04-05 07:10:00,35.6,17.8,29.89,ESE,116,0.0,21.0,48,0.00,,,0.00,Wunderground v.1.15,2013-04-05 11:10:00,
2013-04-05 07:20:00,35.9,17.6,29.89,SE,131,1.0,21.0,47,0.00,,,0.00,Wunderground v.1.15,2013-04-05 11:20:00,
2013-04-05 07:30:00,36.2,17.4,29.89,ESE,112,2.0,21.0,46,0.00,,,0.00,Wunderground v.1.15,2013-04-05 11:30:00,
2013-04-05 07:40:00,36.5,17.7,29.89,ESE,113,3.0,21.0,46,0.00,,,0.00,Wunderground v.1.15,2013-04-05 11:40:00,
2013-04-05 07:50:00,36.6,16.7,29.89,SE,135,2.0,21.0,44,0.00,,,0.00,Wunderground v.1.15,2013-04-05 11:50:00,
2013-04-05 08:00:00,37.0,17.6,29.90,ESE,112,2.0,2.0,45,0.00,,,0.00,Wunderground v.1.15,2013-04-05 12:00:00,
2013-04-05 08:10:00,37.6,17.6,29.90,SE,135,2.0,21.0,44,0.00,,,0.00,Wunderground v.1.15,2013-04-05 12:10:00,
2013-04-05 08:20:00,38.8,18.2,29.89,ESE,102,3.0,3.0,43,0.00,,,0.00,Wunderground v.1.15,2013-04-05 12:20:00,
2013-04-05 08:30:00,39.8,18.0,29.88,ESE,121,3.0,21.0,41,0.00,,,0.00,Wunderground v.1.15,2013-04-05 12:30:00,
2013-04-05 08:40:00,41.3,18.2,29.88,SE,131,3.0,3.0,39,0.00,,,0.00,Wunderground v.1.15,2013-04-05 12:40:00,
2013-04-05 08:50:00,42.3,18.5,29.88,ESE,108,2.0,2.0,38,0.00,,,0.00,Wunderground v.1.15,2013-04-05 12:50:00,
2013-04-05 09:00:00,42.9,18.4,29.86,SE,145,4.0,4.0,37,0.00,,,0.00,Wunderground v.1.15,2013-04-05 13:00:00,
2013-04-05 09:10:00,43.6,17.0,29.86,ESE,121,3.0,3.0,34,0.00,,,0.00,Wunderground v.1.15,2013-04-05 13:10:00,
2013-04-05 09:20:00,44.2,16.2,29.86,ESE,121,5.0,21.0,32,0.00,,,0.00,Wunderground v.1.15,2013-04-05 13:20:00,
2013-04-05 09:30:00,44.6,17.2,29.85,SE,144,3.0,3.0,33,0.00,,,0.00,Wunderground v.1.15,2013-04-05 13:30:00,
2013-04-05 09:40:00,45.4,16.5,29.85,SSE,162,4.0,4.0,31,0.00,,,0.00,Wunderground v.1.15,2013-04-05 13:40:00,
2013-04-05 09:50:00,46.0,19.2,29.84,SSE,149,3.0,21.0,34,0.00,,,0.00,Wunderground v.1.15,2013-04-05 13:50:00,
2013-04-05 10:00:00,45.5,16.6,29.84,SSE,152,4.0,21.0,31,0.00,,,0.00,Wunderground v.1.15,2013-04-05 14:00:00,
2013-04-05 10:10:00,46.0,15.5,29.84,South,180,3.0,3.0,29,0.00,,,0.00,Wunderground v.1.15,2013-04-05 14:10:00,
2013-04-05 10:20:00,48.0,15.6,29.84,SE,141,2.0,2.0,27,0.00,,,0.00,Wunderground v.1.15,2013-04-05 14:20:00,
2013-04-05 10:30:00,47.7,15.3,29.84,SSE,164,2.0,21.0,27,0.00,,,0.00,Wunderground v.1.15,2013-04-05 14:30:00,
2013-04-05 10:40:00,46.0,14.7,29.84,SSE,153,3.0,3.0,28,0.00,,,0.00,Wunderground v.1.15,2013-04-05 14:40:00,
2013-04-05 10:50:00,45.7,14.4,29.83,SE,131,2.0,21.0,28,0.00,,,0.00,Wunderground v.1.15,2013-04-05 14:50:00,
2013-04-05 11:00:00,46.0,15.5,29.84,SSW,206,2.0,2.0,29,0.00,,,0.00,Wunderground v.1.15,2013-04-05 15:00:00,
2013-04-05 11:10:00,45.5,15.8,29.84,West,266,3.0,3.0,30,0.00,,,0.00,Wunderground v.1.15,2013-04-05 15:10:00,
2013-04-05 11:20:00,45.8,16.8,29.84,SE,139,1.0,21.0,31,0.00,,,0.00,Wunderground v.1.15,2013-04-05 15:20:00,
2013-04-05 11:30:00,46.4,16.6,29.84,West,281,2.0,21.0,30,0.00,,,0.00,Wunderground v.1.15,2013-04-05 15:30:00,
2013-04-05 11:40:00,46.1,17.1,29.84,SE,142,2.0,21.0,31,0.00,,,0.00,Wunderground v.1.15,2013-04-05 15:40:00,
2013-04-05 11:50:00,46.2,17.2,29.83,SSE,161,1.0,1.0,31,0.00,,,0.00,Wunderground v.1.15,2013-04-05 15:50:00,
2013-04-05 12:00:00,46.8,17.0,29.82,SE,131,1.0,21.0,30,0.00,,,0.00,Wunderground v.1.15,2013-04-05 16:00:00,
2013-04-05 12:10:00,48.9,18.0,29.82,ESE,106,3.0,21.0,29,0.00,,,0.00,Wunderground v.1.15,2013-04-05 16:10:00,
2013-04-05 12:20:00,49.9,18.9,29.81,SSW,204,3.0,3.0,29,0.00,,,0.00,Wunderground v.1.15,2013-04-05 16:20:00,
2013-04-05 12:30:00,51.1,19.1,29.81,SSW,208,2.0,2.0,28,0.00,,,0.00,Wunderground v.1.15,2013-04-05 16:30:00,
2013-04-05 12:40:00,51.6,21.1,29.81,ESE,116,2.0,2.0,30,0.00,,,0.00,Wunderground v.1.15,2013-04-05 16:40:00,
2013-04-05 12:50:00,52.5,20.3,29.80,West,260,1.0,21.0,28,0.00,,,0.00,Wunderground v.1.15,2013-04-05 16:50:00,
2013-04-05 13:00:00,52.0,21.5,29.80,WSW,255,4.0,4.0,30,0.00,,,0.00,Wunderground v.1.15,2013-04-05 17:00:00,
2013-04-05 13:10:00,51.9,19.8,29.80,WNW,296,3.0,21.0,28,0.00,,,0.00,Wunderground v.1.15,2013-04-05 17:10:00,
2013-04-05 13:20:00,50.4,19.3,29.79,WNW,295,6.0,21.0,29,0.00,,,0.00,Wunderground v.1.15,2013-04-05 17:20:00,
2013-04-05 13:30:00,49.2,19.8,29.78,NW,307,4.0,21.0,31,0.00,,,0.00,Wunderground v.1.15,2013-04-05 17:30:00,
2013-04-05 13:40:00,50.2,20.7,29.78,WSW,244,2.0,2.0,31,0.00,,,0.00,Wunderground v.1.15,2013-04-05 17:40:00,
2013-04-05 13:50:00,52.2,20.0,29.78,West,264,3.0,21.0,28,0.00,,,0.00,Wunderground v.1.15,2013-04-05 17:50:00,
2013-04-05 14:00:00,52.6,20.4,29.77,SSE,159,2.0,21.0,28,0.00,,,0.00,Wunderground v.1.15,2013-04-05 18:00:00,
2013-04-05 14:10:00,50.8,19.6,29.77,West,275,3.0,21.0,29,0.00,,,0.00,Wunderground v.1.15,2013-04-05 18:10:00,
2013-04-05 14:20:00,51.0,22.9,29.76,West,270,5.0,21.0,33,0.00,,,0.00,Wunderground v.1.15,2013-04-05 18:20:00,
2013-04-05 14:30:00,52.2,20.0,29.75,West,269,5.0,5.0,28,0.00,,,0.00,Wunderground v.1.15,2013-04-05 18:30:00,
2013-04-05 14:40:00,52.0,19.9,29.75,West,263,4.0,21.0,28,0.00,,,0.00,Wunderground v.1.15,2013-04-05 18:40:00,
2013-04-05 14:50:00,53.1,20.8,29.75,West,266,7.0,7.0,28,0.00,,,0.00,Wunderground v.1.15,2013-04-05 18:50:00,
2013-04-05 15:00:00,51.9,19.8,29.74,West,268,7.0,7.0,28,0.00,,,0.00,Wunderground v.1.15,2013-04-05 19:00:00,
2013-04-05 15:10:00,51.9,18.0,29.74,WSW,240,6.0,21.0,26,0.00,,,0.00,Wunderground v.1.15,2013-04-05 19:10:00,
2013-04-05 15:20:00,51.1,19.1,29.74,WSW,245,6.0,21.0,28,0.00,,,0.00,Wunderground v.1.15,2013-04-05 19:20:00,
2013-04-05 15:30:00,52.3,20.1,29.74,West,275,9.0,21.0,28,0.00,,,0.00,Wunderground v.1.15,2013-04-05 19:30:00,
2013-04-05 15:50:00,52.6,20.4,29.74,WNW,283,10.0,10.0,28,0.00,,,0.00,Wunderground v.1.15,2013-04-05 19:50:00,
2013-04-05 16:00:00,50.4,18.5,29.75,WNW,290,9.0,21.0,28,0.00,,,0.00,Wunderground v.1.15,2013-04-05 20:00:00,
2013-04-05 16:10:00,51.1,19.1,29.75,NW,315,11.0,21.0,28,0.00,,,0.00,Wunderground v.1.15,2013-04-05 20:10:00,
2013-04-05 16:20:00,50.2,18.3,29.75,West,279,11.0,11.0,28,0.00,,,0.00,Wunderground v.1.15,2013-04-05 20:20:00,
2013-04-05 16:30:00,51.3,19.3,29.75,WNW,288,10.0,10.0,28,0.00,,,0.00,Wunderground v.1.15,2013-04-05 20:30:00,
2013-04-05 16:40:00,49.9,17.2,29.75,WNW,301,10.0,21.0,27,0.00,,,0.00,Wunderground v.1.15,2013-04-05 20:40:00,
2013-04-05 16:50:00,49.6,16.9,29.76,WNW,287,10.0,21.0,27,0.00,,,0.00,Wunderground v.1.15,2013-04-05 20:50:00,
2013-04-05 17:00:00,49.9,18.0,29.77,NW,306,11.0,21.0,28,0.00,,,0.00,Wunderground v.1.15,2013-04-05 21:00:00,
2013-04-05 17:10:00,48.5,16.0,29.77,West,274,11.0,21.0,27,0.00,,,0.00,Wunderground v.1.15,2013-04-05 21:10:00,
2013-04-05 17:20:00,49.2,16.6,29.78,WNW,287,9.0,9.0,27,0.00,,,0.00,Wunderground v.1.15,2013-04-05 21:20:00,
2013-04-05 17:30:00,49.1,16.5,29.78,WSW,252,11.0,11.0,27,0.00,,,0.00,Wunderground v.1.15,2013-04-05 21:30:00,
2013-04-05 17:40:00,48.2,16.6,29.78,WNW,287,9.0,21.0,28,0.00,,,0.00,Wunderground v.1.15,2013-04-05 21:40:00,
2013-04-05 17:50:00,46.7,19.8,29.80,West,274,11.0,21.0,34,0.00,,,0.00,Wunderground v.1.15,2013-04-05 21:50:00,
2013-04-05 18:00:00,45.8,21.0,29.80,West,278,11.0,11.0,37,0.00,,,0.00,Wunderground v.1.15,2013-04-05 22:00:00,
2013-04-05 18:10:00,45.8,22.2,29.80,West,264,8.0,8.0,39,0.00,,,0.00,Wunderground v.1.15,2013-04-05 22:10:00,
2013-04-05 18:20:00,45.7,22.1,29.81,West,263,8.0,21.0,39,0.00,,,0.00,Wunderground v.1.15,2013-04-05 22:20:00,
2013-04-05 18:30:00,44.1,24.1,29.83,WNW,285,8.0,21.0,45,0.00,,,0.00,Wunderground v.1.15,2013-04-05 22:30:00,
2013-04-05 18:40:00,42.8,23.4,29.83,NW,314,9.0,21.0,46,0.00,,,0.00,Wunderground v.1.15,2013-04-05 22:40:00,
2013-04-05 18:50:00,41.9,23.1,29.84,West,279,9.0,9.0,47,0.00,,,0.00,Wunderground v.1.15,2013-04-05 22:50:00,
2013-04-05 19:00:00,41.3,25.0,29.86,SW,226,6.0,21.0,52,0.00,,,0.00,Wunderground v.1.15,2013-04-05 23:00:00,
2013-04-05 19:10:00,40.8,23.1,29.86,WSW,240,6.0,21.0,49,0.00,,,0.00,Wunderground v.1.15,2013-04-05 23:10:00,
2013-04-05 19:20:00,40.3,22.6,29.86,WSW,245,7.0,7.0,49,0.00,,,0.00,Wunderground v.1.15,2013-04-05 23:20:00,
2013-04-05 19:30:00,40.1,23.4,29.87,WSW,253,8.0,8.0,51,0.00,,,0.00,Wunderground v.1.15,2013-04-05 23:30:00,
2013-04-05 19:40:00,39.8,23.6,29.87,West,275,7.0,21.0,52,0.00,,,0.00,Wunderground v.1.15,2013-04-05 23:40:00,
2013-04-05 19:50:00,39.6,23.9,29.88,West,260,6.0,6.0,53,0.00,,,0.00,Wunderground v.1.15,2013-04-05 23:50:00,
2013-04-05 20:00:00,39.5,24.2,29.88,WSW,247,4.0,4.0,54,0.00,,,0.00,Wunderground v.1.15,2013-04-06 00:00:00,
2013-04-05 20:10:00,39.2,22.6,29.88,WNW,285,5.0,21.0,51,0.00,,,0.00,Wunderground v.1.15,2013-04-06 00:10:00,
2013-04-05 20:20:00,38.9,20.4,29.90,West,268,9.0,21.0,47,0.00,,,0.00,Wunderground v.1.15,2013-04-06 00:20:00,
2013-04-05 20:30:00,38.6,19.1,29.91,WSW,241,9.0,9.0,45,0.00,,,0.00,Wunderground v.1.15,2013-04-06 00:30:00,
2013-04-05 20:40:00,38.2,19.2,29.91,West,279,7.0,7.0,46,0.00,,,0.00,Wunderground v.1.15,2013-04-06 00:40:00,
2013-04-05 20:50:00,37.6,19.2,29.91,WNW,283,6.0,21.0,47,0.00,,,0.00,Wunderground v.1.15,2013-04-06 00:50:00,
2013-04-05 21:00:00,37.2,18.8,29.92,WSW,256,6.0,21.0,47,0.00,,,0.00,Wunderground v.1.15,2013-04-06 01:00:00,
2013-04-05 21:10:00,37.2,18.8,29.92,WNW,298,6.0,6.0,47,0.00,,,0.00,Wunderground v.1.15,2013-04-06 01:10:00,
2013-04-05 21:20:00,36.9,18.5,29.93,West,274,6.0,6.0,47,0.00,,,0.00,Wunderground v.1.15,2013-04-06 01:20:00,
2013-04-05 21:30:00,36.2,18.4,29.93,WNW,287,4.0,21.0,48,0.00,,,0.00,Wunderground v.1.15,2013-04-06 01:30:00,
2013-04-05 21:40:00,36.0,18.7,29.93,West,279,4.0,21.0,49,0.00,,,0.00,Wunderground v.1.15,2013-04-06 01:40:00,
2013-04-05 21:50:00,36.0,18.7,29.94,West,274,4.0,4.0,49,0.00,,,0.00,Wunderground v.1.15,2013-04-06 01:50:00,
2013-04-05 22:00:00,35.5,20.9,29.94,West,279,3.0,3.0,55,0.00,,,0.00,Wunderground v.1.15,2013-04-06 02:00:00,
2013-04-05 22:10:00,34.9,22.0,29.94,WNW,282,4.0,21.0,59,0.00,,,0.00,Wunderground v.1.15,2013-04-06 02:10:00,
2013-04-05 22:20:00,34.1,22.4,29.95,WNW,283,3.0,21.0,62,0.00,,,0.00,Wunderground v.1.15,2013-04-06 02:20:00,
2013-04-05 22:30:00,33.8,22.9,29.95,WNW,286,4.0,21.0,64,0.00,,,0.00,Wunderground v.1.15,2013-04-06 02:30:00,
2013-04-05 22:40:00,33.5,23.0,29.95,West,281,4.0,4.0,65,0.00,,,0.00,Wunderground v.1.15,2013-04-06 02:40:00,
2013-04-05 22:50:00,33.5,22.6,29.95,NW,320,5.0,21.0,64,0.00,,,0.00,Wunderground v.1.15,2013-04-06 02:50:00,
2013-04-05 23:00:00,33.5,22.6,29.96,WNW,300,6.0,6.0,64,0.00,,,0.00,Wunderground v.1.15,2013-04-06 03:00:00,
2013-04-05 23:10:00,33.4,22.5,29.96,NNW,333,5.0,5.0,64,0.00,,,0.00,Wunderground v.1.15,2013-04-06 03:10:00,
2013-04-05 23:20:00,33.2,22.7,29.97,West,274,2.0,2.0,65,0.00,,,0.00,Wunderground v.1.15,2013-04-06 03:20:00,
2013-04-05 23:30:00,32.8,22.7,29.97,West,274,2.0,2.0,66,0.00,,,0.00,Wunderground v.1.15,2013-04-06 03:30:00,
2013-04-05 23:40:00,32.5,22.0,29.97,West,274,2.0,2.0,65,0.00,,,0.00,Wunderground v.1.15,2013-04-06 03:40:00,
2013-04-05 23:50:00,32.2,21.7,29.98,WSW,253,2.0,21.0,65,0.00,,,0.00,Wunderground v.1.15,2013-04-06 03:50:00,